Time;durP1;ratioP1;P1;durP2;ratioP2;P2;SDS_P1;SDS_P2;PMS_P1;PMS_P2;Temp;Humidity;BMP_temperature;BMP_pressure;BME280_temperature;BME280_humidity;BME280_pressure;Samples;Min_cycle;Max_cycle;Signal;HPM_P1;HPM_P2
2022/12/23 00:00:40;;;;;;;3.13;1.17;;;24.00;55.30;;;;;;5070678;28;20222;-50
2022/12/23 00:03:13;;;;;;;3.38;1.00;;;24.00;55.30;;;;;;5070548;28;20223;-49
2022/12/23 00:05:44;;;;;;;4.53;1.30;;;24.00;55.20;;;;;;5071089;28;20210;-50
2022/12/23 00:08:15;;;;;;;3.45;1.45;;;24.00;55.10;;;;;;5070572;28;20767;-49
2022/12/23 00:10:45;;;;;;;4.00;1.35;;;24.00;55.10;;;;;;5072566;28;20221;-49
2022/12/23 00:16:07;;;;;;;3.75;1.17;;;24.00;55.20;;;;;;5090536;28;20193;-50
2022/12/23 00:18:40;;;;;;;3.22;1.15;;;24.00;55.00;;;;;;5091938;28;20201;-50
2022/12/23 00:21:13;;;;;;;3.90;1.10;;;24.10;55.10;;;;;;5091167;28;20214;-49
2022/12/23 00:23:45;;;;;;;3.08;0.90;;;24.10;55.00;;;;;;5072136;28;20234;-49
2022/12/23 00:26:21;;;;;;;4.32;1.05;;;24.10;55.00;;;;;;5071161;28;20206;-51
2022/12/23 00:28:51;;;;;;;2.72;1.20;;;24.10;55.00;;;;;;5070636;28;20202;-49
2022/12/23 00:31:23;;;;;;;4.50;1.38;;;24.10;54.90;;;;;;5063481;28;20215;-50
2022/12/23 00:33:56;;;;;;;4.15;1.35;;;24.20;54.80;;;;;;5069860;28;20203;-50
2022/12/23 00:36:28;;;;;;;2.83;1.20;;;24.10;54.60;;;;;;5072834;28;20572;-49
2022/12/23 00:44:45;;;;;;;3.30;0.93;;;24.20;54.50;;;;;;5065642;28;20252;-49
2022/12/23 00:50:00;;;;;;;2.38;0.85;;;24.20;54.50;;;;;;5070268;28;20205;-49
2022/12/23 00:52:31;;;;;;;4.03;1.23;;;24.20;54.50;;;;;;5071004;28;20241;-53
2022/12/23 00:55:02;;;;;;;3.13;1.20;;;24.20;54.50;;;;;;5070158;28;20195;-51
2022/12/23 00:57:32;;;;;;;2.38;1.00;;;24.20;54.60;;;;;;5069910;28;20195;-51
2022/12/23 01:00:03;;;;;;;2.45;1.10;;;24.20;54.60;;;;;;5079793;28;20194;-50
2022/12/23 01:08:05;;;;;;;2.05;1.10;;;24.20;54.60;;;;;;5070643;28;20230;-53
2022/12/23 01:10:38;;;;;;;2.95;1.10;;;24.20;54.40;;;;;;5070334;28;20219;-50
2022/12/23 01:13:09;;;;;;;3.95;1.20;;;24.20;54.30;;;;;;5070592;28;20195;-52
2022/12/23 01:15:40;;;;;;;6.38;1.67;;;24.20;54.30;;;;;;5070764;28;20651;-50
2022/12/23 01:18:10;;;;;;;3.42;1.27;;;24.20;54.30;;;;;;5071441;28;20207;-51
2022/12/23 01:20:43;;;;;;;2.38;1.20;;;24.20;54.30;;;;;;5070415;28;20211;-51
2022/12/23 01:23:14;;;;;;;3.20;1.30;;;24.20;54.20;;;;;;5070561;28;20237;-50
2022/12/23 01:25:45;;;;;;;3.63;1.08;;;24.20;54.20;;;;;;5070820;28;20195;-50
2022/12/23 01:28:16;;;;;;;3.97;1.45;;;24.20;54.20;;;;;;5070717;28;20195;-51
2022/12/23 01:30:47;;;;;;;2.33;1.20;;;24.20;54.20;;;;;;5070444;28;20219;-53
2022/12/23 01:33:18;;;;;;;3.60;1.30;;;24.20;54.20;;;;;;5070585;28;20202;-49
2022/12/23 01:35:51;;;;;;;4.63;1.30;;;24.20;54.20;;;;;;5070403;28;20659;-51
2022/12/23 01:38:21;;;;;;;3.03;1.38;;;24.20;54.10;;;;;;5062999;28;20198;-50
2022/12/23 01:40:52;;;;;;;2.58;1.30;;;24.20;54.10;;;;;;5052772;28;20227;-49
2022/12/23 01:43:22;;;;;;;2.70;1.30;;;24.20;54.10;;;;;;5070504;28;20218;-51
2022/12/23 01:45:52;;;;;;;2.17;1.23;;;24.20;54.10;;;;;;5074104;28;20202;-50
2022/12/23 01:48:26;;;;;;;2.88;1.20;;;24.20;54.10;;;;;;5074716;28;20199;-49
2022/12/23 01:51:02;;;;;;;1.63;1.10;;;24.20;54.00;;;;;;5074749;28;20224;-50
2022/12/23 01:53:40;;;;;;;3.53;1.35;;;24.20;54.00;;;;;;5074623;28;20202;-49
2022/12/23 01:56:14;;;;;;;4.47;1.40;;;24.20;53.90;;;;;;5074586;28;20198;-52
2022/12/23 01:58:49;;;;;;;3.80;1.55;;;24.20;53.90;;;;;;5074413;28;20289;-50
2022/12/23 02:04:08;;;;;;;3.45;1.30;;;24.20;53.90;;;;;;5074280;28;20225;-53
2022/12/23 02:09:32;;;;;;;3.72;1.38;;;24.20;54.00;;;;;;5099164;28;20188;-54
2022/12/23 02:12:30;;;;;;;3.70;1.42;;;24.10;53.90;;;;;;5114646;28;20213;-56
2022/12/23 02:18:35;;;;;;;7.13;1.30;;;24.10;53.80;;;;;;5074230;28;20199;-59
2022/12/23 02:21:22;;;;;;;2.28;1.27;;;24.10;53.70;;;;;;5074291;28;20607;-54
2022/12/23 02:24:29;;;;;;;3.40;1.40;;;24.20;53.70;;;;;;5073850;28;20238;-52
2022/12/23 02:27:24;;;;;;;2.40;1.25;;;24.10;53.70;;;;;;5073725;28;20214;-52
2022/12/23 02:30:26;;;;;;;4.40;1.45;;;24.10;53.60;;;;;;5073809;28;20264;-59
2022/12/23 02:33:27;;;;;;;4.30;1.30;;;24.10;53.60;;;;;;5073606;28;20201;-59
2022/12/23 02:36:15;;;;;;;3.30;1.10;;;24.10;53.60;;;;;;5073591;28;20198;-51
2022/12/23 02:38:54;;;;;;;2.85;1.42;;;24.00;53.60;;;;;;5073502;28;20203;-56
2022/12/23 02:41:31;;;;;;;2.55;1.20;;;24.00;53.70;;;;;;5073497;28;20218;-54
2022/12/23 02:44:07;;;;;;;2.08;1.17;;;24.00;53.70;;;;;;5084433;28;20213;-57
2022/12/23 02:46:43;;;;;;;3.17;1.50;;;24.00;53.80;;;;;;5092874;28;20198;-54
2022/12/23 02:49:20;;;;;;;2.53;1.20;;;24.00;53.80;;;;;;5093224;28;20783;-55
2022/12/23 02:51:54;;;;;;;2.78;1.40;;;24.00;53.80;;;;;;5091147;28;20222;-54
2022/12/23 02:54:30;;;;;;;3.22;1.48;;;24.00;53.90;;;;;;5073518;28;20198;-58
2022/12/23 02:57:04;;;;;;;2.70;1.40;;;24.00;53.80;;;;;;5072162;28;20205;-59
2022/12/23 02:59:39;;;;;;;2.38;1.23;;;24.00;53.90;;;;;;5072958;28;20195;-58
2022/12/23 03:02:10;;;;;;;3.67;1.30;;;24.00;53.90;;;;;;5072426;28;20225;-56
2022/12/23 03:04:43;;;;;;;2.17;1.15;;;24.00;53.90;;;;;;5075581;28;20332;-57
2022/12/23 03:07:19;;;;;;;3.42;1.50;;;24.00;53.90;;;;;;5080411;28;20193;-56
2022/12/23 03:09:59;;;;;;;2.40;1.20;;;24.00;53.90;;;;;;5081362;28;20197;-58
2022/12/23 03:12:40;;;;;;;2.35;1.23;;;24.00;53.90;;;;;;5071609;28;20538;-60
2022/12/23 03:15:24;;;;;;;3.95;1.30;;;23.90;53.90;;;;;;5071880;28;20669;-59
2022/12/23 03:18:04;;;;;;;3.70;1.58;;;23.90;53.90;;;;;;5073231;28;20205;-59
2022/12/23 03:20:45;;;;;;;2.05;0.98;;;23.90;53.90;;;;;;5071824;28;20214;-59
2022/12/23 03:23:24;;;;;;;1.33;1.23;;;23.90;53.90;;;;;;5071503;28;20586;-59
2022/12/23 03:26:03;;;;;;;2.85;1.20;;;23.90;54.00;;;;;;5071269;28;20201;-58
2022/12/23 03:28:41;;;;;;;1.90;1.15;;;23.90;53.90;;;;;;5071658;28;20545;-59
2022/12/23 03:31:16;;;;;;;2.85;1.20;;;23.90;54.00;;;;;;5071784;28;20305;-58
2022/12/23 03:33:49;;;;;;;3.30;1.27;;;23.90;54.00;;;;;;5071580;28;20206;-58
2022/12/23 03:36:26;;;;;;;2.03;1.10;;;23.90;54.00;;;;;;5072149;28;20584;-58
2022/12/23 03:38:58;;;;;;;2.40;1.30;;;23.90;54.00;;;;;;5071240;28;20222;-55
2022/12/23 03:41:33;;;;;;;2.13;1.27;;;23.90;54.00;;;;;;5071568;28;20221;-58
2022/12/23 03:44:08;;;;;;;2.00;1.27;;;23.90;54.00;;;;;;5070708;28;20603;-56
2022/12/23 03:46:45;;;;;;;3.05;1.40;;;23.90;54.00;;;;;;5072365;28;20191;-59
2022/12/23 03:49:21;;;;;;;2.78;1.30;;;23.90;54.00;;;;;;5071356;28;20198;-57
2022/12/23 03:51:58;;;;;;;2.45;1.40;;;23.90;54.00;;;;;;5070885;28;20218;-56
2022/12/23 03:54:35;;;;;;;2.33;1.23;;;23.90;54.40;;;;;;5071456;28;20688;-59
2022/12/23 03:57:07;;;;;;;1.27;1.15;;;23.90;54.00;;;;;;5072184;28;20203;-60
2022/12/23 03:59:40;;;;;;;2.75;1.30;;;23.90;54.10;;;;;;5071685;28;20198;-58
2022/12/23 04:02:17;;;;;;;2.03;1.13;;;23.80;54.00;;;;;;5070229;28;20219;-54
2022/12/23 04:05:02;;;;;;;2.08;1.10;;;23.90;54.10;;;;;;5070904;28;20222;-58
2022/12/23 04:07:40;;;;;;;3.80;1.30;;;23.80;54.10;;;;;;5070307;28;20665;-59
2022/12/23 04:10:12;;;;;;;1.65;1.15;;;23.90;54.10;;;;;;5108445;28;20606;-59
2022/12/23 04:12:43;;;;;;;2.88;1.33;;;23.90;54.10;;;;;;5111790;28;20246;-59
2022/12/23 04:15:14;;;;;;;2.00;1.15;;;23.90;54.10;;;;;;5092086;28;20547;-55
2022/12/23 04:20:20;;;;;;;2.78;1.20;;;23.90;54.10;;;;;;5081884;28;20644;-41
2022/12/23 04:22:54;;;;;;;2.70;1.25;;;23.90;54.20;;;;;;5079657;28;20218;-47
2022/12/23 04:25:25;;;;;;;2.63;1.13;;;23.90;54.10;;;;;;5053741;28;20195;-48
2022/12/23 04:27:56;;;;;;;1.58;1.00;;;24.00;54.30;;;;;;5070878;28;20205;-41
2022/12/23 04:30:26;;;;;;;2.85;1.48;;;23.90;54.80;;;;;;5069843;28;20310;-42
2022/12/23 04:32:58;;;;;;;2.42;1.05;;;24.00;54.30;;;;;;5070296;28;20195;-40
2022/12/23 04:35:41;;;;;;;1.45;1.10;;;24.00;55.00;;;;;;5052540;28;20229;-41
2022/12/23 04:38:14;;;;;;;2.50;1.10;;;24.00;54.30;;;;;;5070391;28;20225;-42
2022/12/23 04:40:50;;;;;;;3.42;1.17;;;24.00;54.30;;;;;;5070109;28;20215;-42
2022/12/23 04:43:21;;;;;;;1.73;1.13;;;24.00;54.40;;;;;;5039276;28;20649;-41
2022/12/23 04:45:55;;;;;;;2.92;1.25;;;24.00;54.30;;;;;;5070656;28;20195;-44
2022/12/23 04:48:27;;;;;;;4.65;1.20;;;24.00;54.40;;;;;;5097938;28;20250;-40
2022/12/23 04:50:58;;;;;;;2.03;1.20;;;24.00;55.00;;;;;;5110524;28;20300;-41
2022/12/23 04:53:31;;;;;;;1.75;0.90;;;24.00;54.40;;;;;;5078339;28;20214;-46
2022/12/23 04:56:01;;;;;;;2.55;1.30;;;24.00;54.30;;;;;;5070222;28;20191;-46
2022/12/23 04:58:32;;;;;;;1.33;1.02;;;24.00;54.30;;;;;;5070506;28;20194;-41
2022/12/23 05:01:07;;;;;;;1.65;1.10;;;24.00;54.30;;;;;;5084335;28;20206;-41
2022/12/23 05:03:38;;;;;;;2.60;1.25;;;24.00;54.30;;;;;;5090610;28;20320;-46
2022/12/23 05:06:09;;;;;;;3.20;1.25;;;24.00;54.30;;;;;;5090371;28;20724;-41
2022/12/23 05:08:42;;;;;;;2.42;1.50;;;24.00;54.30;;;;;;5090008;28;20201;-44
2022/12/23 05:11:12;;;;;;;2.08;1.30;;;24.00;54.30;;;;;;5090732;28;20218;-41
2022/12/23 05:13:43;;;;;;;1.85;1.00;;;24.00;54.30;;;;;;5089685;28;20942;-41
2022/12/23 05:16:14;;;;;;;1.25;1.10;;;24.00;54.30;;;;;;5090198;28;20197;-41
2022/12/23 05:18:44;;;;;;;1.95;1.23;;;24.00;54.30;;;;;;5102433;22;20226;-52
2022/12/23 05:21:15;;;;;;;1.95;0.93;;;24.00;54.40;;;;;;5096805;28;20214;-56
2022/12/23 05:23:48;;;;;;;1.45;1.00;;;24.00;54.40;;;;;;5078479;28;20376;-55
2022/12/23 05:26:19;;;;;;;3.45;1.30;;;24.00;54.40;;;;;;5076516;28;20198;-56
2022/12/23 05:28:49;;;;;;;1.20;0.98;;;24.00;54.40;;;;;;5076966;28;20709;-53
2022/12/23 05:31:20;;;;;;;1.80;1.10;;;24.00;54.40;;;;;;5076800;28;20221;-54
2022/12/23 05:33:53;;;;;;;2.15;1.20;;;24.00;54.40;;;;;;5076792;28;20219;-54
2022/12/23 05:36:24;;;;;;;2.92;1.10;;;23.90;54.40;;;;;;5058820;28;20637;-55
2022/12/23 05:39:02;;;;;;;2.20;1.10;;;24.00;54.40;;;;;;5076473;28;20201;-54
2022/12/23 05:41:37;;;;;;;1.83;1.15;;;23.90;54.30;;;;;;5058198;28;20222;-55
2022/12/23 05:44:09;;;;;;;1.73;1.17;;;23.90;54.30;;;;;;5076688;28;20222;-51
2022/12/23 05:46:41;;;;;;;1.73;1.20;;;24.00;54.50;;;;;;5058641;28;20214;-50
2022/12/23 05:49:14;;;;;;;1.70;1.10;;;23.90;54.40;;;;;;5077269;28;20198;-52
2022/12/23 05:51:45;;;;;;;1.63;1.05;;;23.90;54.40;;;;;;5076254;28;20223;-49
2022/12/23 05:54:17;;;;;;;2.53;1.10;;;23.90;54.40;;;;;;5076821;28;20199;-55
2022/12/23 05:56:48;;;;;;;1.40;0.88;;;23.90;54.50;;;;;;5076756;28;20209;-53
2022/12/23 05:59:19;;;;;;;1.50;0.98;;;23.80;54.40;;;;;;5076285;28;20210;-55
2022/12/23 06:01:49;;;;;;;2.97;1.38;;;23.90;54.50;;;;;;5099119;28;20214;-51
2022/12/23 06:04:20;;;;;;;1.90;1.00;;;23.80;54.40;;;;;;5097090;28;20229;-52
2022/12/23 06:06:51;;;;;;;1.75;1.08;;;23.90;54.50;;;;;;5096566;28;20202;-52
2022/12/23 06:09:23;;;;;;;2.08;1.27;;;23.90;54.50;;;;;;5096730;28;20209;-51
2022/12/23 06:11:54;;;;;;;2.33;1.20;;;23.80;54.40;;;;;;5096230;28;20236;-52
2022/12/23 06:14:25;;;;;;;1.88;1.13;;;23.80;54.40;;;;;;5095961;28;20194;-53
2022/12/23 06:16:56;;;;;;;1.95;1.10;;;23.80;55.00;;;;;;5086355;28;20205;-54
2022/12/23 06:19:26;;;;;;;1.98;1.15;;;23.80;54.40;;;;;;5077080;28;20210;-53
2022/12/23 06:21:57;;;;;;;1.40;1.00;;;23.80;54.40;;;;;;5075870;28;20231;-51
2022/12/23 06:24:29;;;;;;;2.55;1.30;;;23.80;55.00;;;;;;5076202;28;20228;-50
2022/12/23 06:27:00;;;;;;;1.95;1.13;;;23.80;54.50;;;;;;5076370;28;20195;-52
2022/12/23 06:29:31;;;;;;;2.05;1.20;;;23.80;54.40;;;;;;5076187;28;20199;-49
2022/12/23 06:32:02;;;;;;;2.83;1.27;;;23.80;54.50;;;;;;5071681;28;20226;-50
2022/12/23 06:34:32;;;;;;;2.33;1.10;;;23.80;54.50;;;;;;5072985;28;20195;-49
2022/12/23 06:37:03;;;;;;;1.73;1.00;;;23.70;54.40;;;;;;5087506;28;20194;-52
2022/12/23 06:39:36;;;;;;;1.90;1.05;;;23.70;54.50;;;;;;5073505;28;20336;-51
2022/12/23 06:42:06;;;;;;;2.00;1.10;;;23.70;54.40;;;;;;5073381;28;20211;-49
2022/12/23 06:44:37;;;;;;;1.90;1.27;;;23.70;55.10;;;;;;5073226;28;20230;-52
2022/12/23 06:47:08;;;;;;;1.98;1.20;;;23.70;54.50;;;;;;5073038;28;20285;-51
2022/12/23 06:49:39;;;;;;;1.20;1.00;;;23.70;54.50;;;;;;5073137;28;20277;-49
2022/12/23 06:52:09;;;;;;;1.73;1.10;;;23.70;54.50;;;;;;5072562;28;20218;-53
2022/12/23 06:54:42;;;;;;;2.00;1.00;;;23.70;54.40;;;;;;5073107;28;20197;-50
2022/12/23 06:57:13;;;;;;;2.30;1.23;;;23.70;54.40;;;;;;5089345;28;20653;-49
2022/12/23 06:59:43;;;;;;;1.77;1.02;;;23.70;54.40;;;;;;5093439;28;20205;-51
2022/12/23 07:02:14;;;;;;;1.67;1.30;;;23.70;54.40;;;;;;5092980;28;20217;-49
2022/12/23 07:04:45;;;;;;;1.88;1.13;;;23.70;54.50;;;;;;5092936;28;20226;-52
2022/12/23 07:07:15;;;;;;;1.58;1.17;;;23.70;54.50;;;;;;5093018;28;20198;-50
2022/12/23 07:09:48;;;;;;;2.58;1.10;;;23.70;54.50;;;;;;5093170;28;20194;-50
2022/12/23 07:12:19;;;;;;;2.65;1.20;;;23.70;54.50;;;;;;5092996;28;20261;-50
2022/12/23 07:14:49;;;;;;;1.45;1.02;;;23.70;54.50;;;;;;5092999;28;20198;-50
2022/12/23 07:17:20;;;;;;;2.80;1.10;;;23.70;54.50;;;;;;5092778;28;20202;-50
2022/12/23 07:19:51;;;;;;;1.90;1.20;;;23.70;54.50;;;;;;5093477;28;20205;-50
2022/12/23 07:22:22;;;;;;;2.33;1.15;;;23.70;54.50;;;;;;5086197;28;20237;-50
2022/12/23 07:24:54;;;;;;;1.92;1.20;;;23.70;54.50;;;;;;5072803;28;20223;-49
2022/12/23 07:27:25;;;;;;;2.08;1.10;;;23.70;54.50;;;;;;5072295;28;20651;-49
2022/12/23 07:30:01;;;;;;;2.35;1.27;;;23.70;54.50;;;;;;5072108;28;20195;-49
2022/12/23 07:32:34;;;;;;;1.70;1.20;;;23.70;54.50;;;;;;5071837;28;20203;-50
2022/12/23 07:35:10;;;;;;;1.60;1.00;;;23.70;54.50;;;;;;5055044;28;20248;-49
2022/12/23 07:37:40;;;;;;;1.67;1.00;;;23.70;54.50;;;;;;5072162;28;20198;-50
2022/12/23 07:40:19;;;;;;;2.58;1.33;;;23.70;54.50;;;;;;5072036;28;20203;-51
2022/12/23 07:42:56;;;;;;;1.73;1.08;;;23.60;54.40;;;;;;5051649;28;20229;-52
2022/12/23 07:45:27;;;;;;;2.58;1.10;;;23.70;54.50;;;;;;5072143;28;20694;-50
2022/12/23 07:47:59;;;;;;;1.58;1.10;;;23.60;54.40;;;;;;5054179;28;20226;-49
2022/12/23 07:50:30;;;;;;;1.42;1.10;;;23.60;54.50;;;;;;5072162;28;20227;-53
2022/12/23 07:53:01;;;;;;;1.00;0.80;;;23.50;54.50;;;;;;5072129;28;20202;-50
2022/12/23 07:55:33;;;;;;;1.33;1.15;;;23.60;54.50;;;;;;5086495;28;20186;-49
2022/12/23 07:58:04;;;;;;;2.47;0.98;;;23.50;54.40;;;;;;5091924;28;20213;-51
2022/12/23 08:00:35;;;;;;;2.35;0.95;;;23.50;54.50;;;;;;5091468;28;20669;-50
2022/12/23 08:03:05;;;;;;;1.30;1.00;;;23.50;54.40;;;;;;5091547;28;20620;-48
2022/12/23 08:05:36;;;;;;;1.45;1.10;;;23.50;54.40;;;;;;5091947;28;20299;-50
2022/12/23 08:08:07;;;;;;;1.25;1.00;;;23.50;54.40;;;;;;5092200;28;20595;-52
2022/12/23 08:10:39;;;;;;;1.92;1.08;;;23.50;54.40;;;;;;5091446;28;20214;-55
2022/12/23 08:13:10;;;;;;;1.27;1.17;;;23.50;54.40;;;;;;5091365;28;20194;-53
2022/12/23 08:15:41;;;;;;;1.10;1.00;;;23.50;54.50;;;;;;5091732;28;20707;-52
2022/12/23 09:19:50;;;;;;;3.10;1.65;;;23.00;55.10;;;;;;5365514;23;20232;-56
2022/12/23 09:22:20;;;;;;;2.13;1.38;;;23.00;55.10;;;;;;5022969;28;20240;-54
2022/12/23 09:24:54;;;;;;;2.28;1.52;;;23.00;55.10;;;;;;5010050;28;20225;-58
2022/12/23 09:27:27;;;;;;;2.67;1.50;;;22.90;55.00;;;;;;5009363;28;20211;-58
2022/12/23 09:29:58;;;;;;;1.95;1.40;;;22.90;55.00;;;;;;5010460;28;21522;-57
2022/12/23 09:32:28;;;;;;;1.88;1.33;;;22.90;55.00;;;;;;5010047;28;20220;-51
2022/12/23 09:35:01;;;;;;;3.58;1.52;;;22.90;55.00;;;;;;5010156;28;20211;-51
2022/12/23 09:37:32;;;;;;;2.38;1.38;;;22.90;55.10;;;;;;5009860;28;20652;-55
2022/12/23 09:40:02;;;;;;;2.40;1.65;;;22.80;55.00;;;;;;5010540;28;20223;-58
2022/12/23 09:42:51;;;;;;;2.60;1.40;;;22.80;55.00;;;;;;5010062;28;20201;-51
2022/12/23 09:45:39;;;;;;;1.85;1.60;;;22.80;55.10;;;;;;5011097;28;20224;-55
2022/12/23 09:48:14;;;;;;;1.67;1.40;;;22.80;55.10;;;;;;5023723;28;20188;-52
2022/12/23 09:50:47;;;;;;;2.95;1.45;;;22.70;55.10;;;;;;5030438;28;20211;-52
2022/12/23 09:53:20;;;;;;;4.28;1.92;;;22.70;55.10;;;;;;5016138;28;20200;-55
2022/12/23 09:55:56;;;;;;;1.73;1.10;;;22.70;55.00;;;;;;5010076;28;20653;-54
2022/12/23 09:58:33;;;;;;;3.33;1.63;;;22.70;55.00;;;;;;5010383;28;20265;-55
2022/12/23 10:01:17;;;;;;;2.42;1.58;;;22.60;55.00;;;;;;5009211;28;20227;-52
2022/12/23 10:04:18;;;;;;;2.45;1.50;;;22.60;55.00;;;;;;5010729;28;20385;-54
2022/12/23 10:06:54;;;;;;;1.90;1.33;;;22.60;54.90;;;;;;5013043;28;20957;-54
2022/12/23 10:09:25;;;;;;;2.10;1.60;;;22.60;54.90;;;;;;5014502;28;20203;-54
2022/12/23 10:11:56;;;;;;;2.17;1.80;;;22.60;55.00;;;;;;5013577;28;20216;-51
2022/12/23 10:14:31;;;;;;;3.08;1.50;;;22.60;55.00;;;;;;5013165;28;20958;-55
2022/12/23 10:17:06;;;;;;;1.92;1.38;;;22.50;55.00;;;;;;5013507;28;20216;-50
2022/12/23 10:19:43;;;;;;;2.05;1.13;;;22.50;55.10;;;;;;5014114;28;20578;-49
2022/12/23 10:22:21;;;;;;;1.65;1.50;;;22.50;55.10;;;;;;5019136;28;20224;-57
2022/12/23 10:24:53;;;;;;;1.83;1.30;;;22.40;55.00;;;;;;5032924;28;20230;-55
2022/12/23 10:27:29;;;;;;;2.85;1.80;;;22.40;55.10;;;;;;5033034;28;20203;-49
2022/12/23 10:30:03;;;;;;;2.47;1.73;;;22.40;55.10;;;;;;5033129;28;20215;-57
2022/12/23 10:32:45;;;;;;;2.30;1.40;;;22.40;55.10;;;;;;5031853;28;20203;-51
2022/12/23 10:35:23;;;;;;;2.00;1.35;;;22.40;55.10;;;;;;5013059;28;20197;-54
2022/12/23 10:38:02;;;;;;;4.03;1.55;;;22.40;55.10;;;;;;5013439;28;20201;-51
2022/12/23 10:40:40;;;;;;;2.60;1.80;;;22.40;55.10;;;;;;5013250;28;20584;-53
2022/12/23 10:43:21;;;;;;;1.63;1.30;;;22.40;55.00;;;;;;5018449;28;20196;-51
2022/12/23 10:45:59;;;;;;;2.58;1.52;;;22.40;55.00;;;;;;5029564;28;20216;-54
2022/12/23 10:48:43;;;;;;;1.95;1.45;;;22.30;55.00;;;;;;5015406;28;20205;-51
2022/12/23 10:51:19;;;;;;;2.90;1.50;;;22.30;55.00;;;;;;5018541;28;20212;-56
2022/12/23 10:53:55;;;;;;;1.75;1.30;;;22.30;55.10;;;;;;5014928;28;20208;-55
2022/12/23 10:56:26;;;;;;;2.90;1.75;;;22.30;55.10;;;;;;5012448;28;20204;-52
2022/12/23 10:58:59;;;;;;;1.60;1.17;;;22.30;55.10;;;;;;5012180;28;20273;-54
2022/12/23 11:01:31;;;;;;;2.10;1.58;;;22.20;55.10;;;;;;5012839;28;20221;-57
2022/12/23 11:04:10;;;;;;;1.85;1.40;;;22.20;55.10;;;;;;5012592;28;20204;-55
2022/12/23 11:06:44;;;;;;;2.25;1.55;;;22.20;55.10;;;;;;5012776;28;20217;-55
2022/12/23 11:09:21;;;;;;;2.25;1.58;;;22.20;55.10;;;;;;5012682;28;20201;-54
2022/12/23 11:12:06;;;;;;;2.22;1.60;;;22.20;55.10;;;;;;5012300;28;20235;-51
2022/12/23 11:14:42;;;;;;;2.33;1.20;;;22.20;55.10;;;;;;5012609;28;20664;-54
2022/12/23 11:17:23;;;;;;;2.20;1.40;;;22.20;55.10;;;;;;5011899;28;20200;-54
2022/12/23 11:20:17;;;;;;;2.90;1.63;;;22.20;55.00;;;;;;5013798;28;20210;-51
2022/12/23 11:22:52;;;;;;;1.77;1.20;;;22.20;55.00;;;;;;5012758;28;20201;-52
2022/12/23 11:25:39;;;;;;;1.90;1.38;;;22.20;55.00;;;;;;5013077;28;20653;-52
2022/12/23 11:28:22;;;;;;;2.10;1.50;;;22.10;55.00;;;;;;5013051;28;20232;-52
2022/12/23 11:30:57;;;;;;;1.80;1.38;;;22.10;55.10;;;;;;5013016;28;20217;-48
2022/12/23 11:33:30;;;;;;;2.13;1.50;;;22.10;55.10;;;;;;5012754;28;20193;-52
2022/12/23 11:36:06;;;;;;;1.77;1.38;;;22.10;55.10;;;;;;5012663;28;20201;-54
2022/12/23 11:38:38;;;;;;;2.30;1.30;;;22.10;55.10;;;;;;5012600;28;20204;-53
2022/12/23 11:41:11;;;;;;;3.13;1.67;;;22.10;55.10;;;;;;5012443;28;20245;-54
2022/12/23 11:43:42;;;;;;;2.72;1.50;;;22.00;55.20;;;;;;5012467;28;20196;-51
2022/12/23 11:46:27;;;;;;;2.80;1.48;;;22.10;55.20;;;;;;5012186;28;20255;-56
2022/12/23 11:49:18;;;;;;;2.20;1.52;;;22.10;55.10;;;;;;5011941;28;20204;-52
2022/12/23 11:52:00;;;;;;;2.67;1.45;;;22.00;55.10;;;;;;5012287;28;20239;-48
2022/12/23 11:54:32;;;;;;;1.98;1.40;;;22.10;55.10;;;;;;5012530;28;20196;-51
2022/12/23 11:57:07;;;;;;;4.13;1.40;;;22.10;55.10;;;;;;5012233;28;20197;-51
2022/12/23 11:59:40;;;;;;;2.65;1.27;;;22.00;55.00;;;;;;5012569;28;20195;-51
2022/12/23 12:02:19;;;;;;;2.90;1.65;;;22.00;55.00;;;;;;5011514;28;20217;-49
2022/12/23 12:04:56;;;;;;;2.88;1.60;;;22.00;55.00;;;;;;5014499;28;20679;-47
2022/12/23 12:07:27;;;;;;;2.78;1.38;;;22.00;55.00;;;;;;5012358;28;20207;-49
2022/12/23 12:10:01;;;;;;;2.05;1.40;;;22.00;55.10;;;;;;5012278;28;20200;-48
2022/12/23 12:12:35;;;;;;;2.28;1.40;;;22.00;55.10;;;;;;5011756;28;20193;-49
2022/12/23 12:15:08;;;;;;;1.42;1.27;;;21.90;55.10;;;;;;5011844;28;20200;-48
2022/12/23 12:17:43;;;;;;;1.83;1.30;;;22.00;55.20;;;;;;5012253;28;20200;-49
2022/12/23 12:20:19;;;;;;;1.70;1.27;;;21.90;55.20;;;;;;5030538;28;20207;-48
2022/12/23 12:22:54;;;;;;;2.25;1.30;;;21.90;55.10;;;;;;5020912;28;20208;-47
2022/12/23 12:25:34;;;;;;;2.58;1.65;;;21.90;55.20;;;;;;5011377;28;20227;-47
2022/12/23 12:28:12;;;;;;;2.15;1.23;;;21.90;55.10;;;;;;5011309;28;20612;-49
2022/12/23 12:30:50;;;;;;;2.10;1.42;;;21.90;55.10;;;;;;5010861;28;20216;-48
2022/12/23 12:33:24;;;;;;;2.28;1.30;;;21.90;55.60;;;;;;5011682;28;20199;-48
2022/12/23 12:36:02;;;;;;;1.67;1.30;;;21.90;55.00;;;;;;5011687;28;20200;-48
2022/12/23 12:38:35;;;;;;;2.10;1.50;;;21.90;55.00;;;;;;5011738;28;20287;-50
2022/12/23 12:41:10;;;;;;;1.73;1.60;;;21.90;55.00;;;;;;5012126;28;20229;-48
2022/12/23 12:43:48;;;;;;;2.90;1.38;;;21.90;55.10;;;;;;5012007;28;20664;-48
2022/12/23 12:46:32;;;;;;;1.73;1.20;;;21.90;55.10;;;;;;5011193;28;20244;-49
2022/12/23 12:49:10;;;;;;;1.45;1.25;;;21.90;55.10;;;;;;5011097;28;20197;-48
2022/12/23 12:51:47;;;;;;;1.98;1.40;;;21.90;55.10;;;;;;5010611;28;20216;-48
2022/12/23 12:54:26;;;;;;;2.30;1.50;;;21.80;55.10;;;;;;5028300;28;20199;-48
2022/12/23 12:56:58;;;;;;;2.38;1.42;;;21.80;55.10;;;;;;5031181;28;20204;-48
2022/12/23 12:59:34;;;;;;;2.75;1.60;;;21.80;55.10;;;;;;5031251;28;20215;-48
2022/12/23 13:02:28;;;;;;;1.77;1.50;;;21.90;55.20;;;;;;5031062;28;20211;-49
2022/12/23 13:05:26;;;;;;;1.65;1.33;;;21.80;55.10;;;;;;5031016;28;20203;-49
2022/12/23 13:08:14;;;;;;;2.20;1.30;;;21.80;55.00;;;;;;5031121;28;20196;-48
2022/12/23 13:10:50;;;;;;;2.10;1.40;;;21.80;55.00;;;;;;5030925;28;20215;-48
2022/12/23 13:13:34;;;;;;;1.33;1.23;;;21.80;55.00;;;;;;5030480;28;20195;-48
2022/12/23 13:16:15;;;;;;;1.80;1.17;;;21.80;55.00;;;;;;5030954;28;20199;-47
2022/12/23 13:18:54;;;;;;;2.30;1.70;;;21.80;55.00;;;;;;5042455;23;20215;-40
2022/12/23 13:21:29;;;;;;;2.40;1.40;;;21.80;55.00;;;;;;5030632;28;20216;-38
2022/12/23 13:24:12;;;;;;;1.63;1.38;;;21.80;55.10;;;;;;5010702;28;20291;-38
2022/12/23 13:26:50;;;;;;;1.60;1.42;;;21.80;55.10;;;;;;5010904;28;20240;-39
2022/12/23 13:29:44;;;;;;;1.67;1.35;;;21.80;55.10;;;;;;5010905;28;20200;-38
2022/12/23 13:32:24;;;;;;;2.42;1.33;;;21.70;55.10;;;;;;5010570;28;20217;-39
2022/12/23 13:35:02;;;;;;;1.85;1.27;;;21.70;55.10;;;;;;5010668;28;20205;-39
2022/12/23 13:37:40;;;;;;;1.50;1.23;;;21.70;55.10;;;;;;5010775;28;20200;-38
2022/12/23 13:40:30;;;;;;;1.50;1.20;;;21.70;55.10;;;;;;5011168;28;20653;-38
2022/12/23 13:43:07;;;;;;;1.63;1.38;;;21.70;55.10;;;;;;5014270;28;20207;-38
2022/12/23 13:45:40;;;;;;;2.00;1.30;;;21.70;55.10;;;;;;5014210;28;20250;-38
2022/12/23 13:48:26;;;;;;;2.40;1.40;;;21.70;55.10;;;;;;5014742;28;20201;-41
2022/12/23 13:51:03;;;;;;;2.00;1.40;;;21.70;55.00;;;;;;5014738;28;20217;-38
2022/12/23 13:53:57;;;;;;;1.63;1.30;;;21.70;55.00;;;;;;5014804;28;20200;-38
2022/12/23 13:56:34;;;;;;;2.38;1.38;;;21.70;55.10;;;;;;5014607;28;20657;-39
2022/12/23 13:59:09;;;;;;;1.63;1.48;;;21.70;55.10;;;;;;5014443;28;20203;-38
2022/12/23 14:01:47;;;;;;;1.30;1.20;;;21.70;55.10;;;;;;5014137;28;20216;-38
2022/12/23 14:04:36;;;;;;;1.42;1.20;;;21.70;55.10;;;;;;5014474;28;20196;-38
2022/12/23 14:07:19;;;;;;;1.38;1.05;;;21.70;55.20;;;;;;5014396;28;20224;-38
2022/12/23 14:09:54;;;;;;;1.52;1.42;;;21.60;55.20;;;;;;5014485;28;20620;-38
2022/12/23 14:12:29;;;;;;;1.75;1.42;;;21.60;55.20;;;;;;5016382;28;20208;-40
2022/12/23 14:15:31;;;;;;;2.15;1.30;;;21.60;55.20;;;;;;5013984;28;20204;-38
2022/12/23 14:18:17;;;;;;;1.58;1.38;;;21.60;55.30;;;;;;5013980;28;20201;-40
2022/12/23 14:20:56;;;;;;;1.67;1.35;;;21.60;55.20;;;;;;5013725;28;20225;-38
2022/12/23 14:23:38;;;;;;;1.38;1.27;;;21.60;55.20;;;;;;5013898;28;20711;-39
2022/12/23 14:26:28;;;;;;;2.00;1.30;;;21.60;55.20;;;;;;5015795;28;20231;-38
2022/12/23 14:29:17;;;;;;;1.50;1.35;;;21.60;55.20;;;;;;5013449;28;20208;-38
2022/12/23 14:31:55;;;;;;;2.08;1.60;;;21.60;55.10;;;;;;5013738;28;20720;-38
2022/12/23 14:34:31;;;;;;;1.55;1.10;;;21.60;55.20;;;;;;5016351;28;20192;-38
2022/12/23 14:37:39;;;;;;;1.98;1.25;;;21.60;55.20;;;;;;5014233;28;20193;-38
2022/12/23 14:40:50;;;;;;;1.60;1.27;;;21.60;55.30;;;;;;5013756;28;20204;-38
2022/12/23 14:44:01;;;;;;;2.25;1.40;;;21.60;55.30;;;;;;5013934;28;20197;-38
2022/12/23 14:47:02;;;;;;;1.85;1.38;;;21.60;55.30;;;;;;5004987;28;20228;-38
2022/12/23 14:49:43;;;;;;;1.80;1.30;;;21.50;55.30;;;;;;5007486;28;20200;-39
2022/12/23 14:53:01;;;;;;;1.35;1.20;;;21.50;55.30;;;;;;5012624;28;20286;-38
2022/12/23 14:55:49;;;;;;;1.38;1.27;;;21.50;55.30;;;;;;5013477;28;20204;-38
2022/12/23 14:58:47;;;;;;;1.63;1.20;;;21.50;55.30;;;;;;5015719;28;20202;-39
2022/12/23 15:01:20;;;;;;;1.30;1.10;;;21.50;55.30;;;;;;5007820;28;20228;-38
2022/12/23 15:03:53;;;;;;;1.95;1.25;;;21.50;55.20;;;;;;5013330;28;20205;-38